Time;durP1;ratioP1;P1;durP2;ratioP2;P2;SDS_P1;SDS_P2;PMS_P1;PMS_P2;Temp;Humidity;BMP_temperature;BMP_pressure;BME280_temperature;BME280_humidity;BME280_pressure;Samples;Min_cycle;Max_cycle;Signal;HPM_P1;HPM_P2
2022/09/01 00:02:15;;;;;;;0.00;0.00;;;;;;;12.32;84.45;101099.91;5071558;28;20171;-74
2022/09/01 00:04:43;;;;;;;0.00;0.00;;;;;;;12.26;84.56;101101.13;5071344;28;20179;-75
2022/09/01 00:07:09;;;;;;;0.00;0.00;;;;;;;12.23;85.12;101103.66;5072999;28;20193;-75
2022/09/01 00:09:35;;;;;;;0.00;0.00;;;;;;;12.22;85.10;101108.34;5072918;28;20166;-75
2022/09/01 00:12:01;;;;;;;0.00;0.00;;;;;;;12.23;85.43;101101.75;5072667;28;20512;-75
2022/09/01 00:14:29;;;;;;;0.00;0.00;;;;;;;12.23;85.67;101109.16;5072751;28;20245;-75
2022/09/01 00:16:56;;;;;;;0.00;0.00;;;;;;;12.27;86.01;101104.66;5072624;28;20223;-74
2022/09/01 00:19:22;;;;;;;0.00;0.00;;;;;;;12.31;85.95;101109.25;5072661;28;20170;-74
2022/09/01 00:21:48;;;;;;;0.00;0.00;;;;;;;12.30;85.66;101107.63;5072686;28;20232;-75
2022/09/01 00:24:16;;;;;;;0.00;0.00;;;;;;;12.36;85.93;101111.88;5071738;28;20617;-75
2022/09/01 00:26:42;;;;;;;0.00;0.00;;;;;;;12.41;85.67;101106.28;5072468;28;20526;-75
2022/09/01 00:29:08;;;;;;;0.00;0.00;;;;;;;12.41;85.38;101108.19;5072482;28;20174;-74
2022/09/01 00:31:33;;;;;;;0.00;0.00;;;;;;;12.42;nan;101107.88;5072425;28;20703;-75
2022/09/01 00:33:59;;;;;;;0.00;0.00;;;;;;;12.44;85.33;101105.69;5072165;28;20265;-74
2022/09/01 00:36:25;;;;;;;0.00;0.00;;;;;;;12.42;85.87;101101.59;5072209;28;20242;-75
2022/09/01 00:38:51;;;;;;;0.00;0.00;;;;;;;12.41;85.69;101102.72;5072127;28;20201;-75
2022/09/01 00:41:24;;;;;;;0.00;0.00;;;;;;;12.42;85.61;101096.94;5071119;28;20501;-75
2022/09/01 00:43:53;;;;;;;0.00;0.00;;;;;;;12.41;86.21;101100.78;5071930;28;20833;-74
2022/09/01 00:46:24;;;;;;;0.10;0.10;;;;;;;12.36;86.27;101103.66;5072068;28;20205;-74
2022/09/01 00:48:54;;;;;;;0.00;0.00;;;;;;;12.29;86.36;101102.44;5070801;28;20666;-75
2022/09/01 00:51:20;;;;;;;0.00;0.00;;;;;;;12.15;86.68;101097.81;5070999;28;20214;-75
2022/09/01 00:53:46;;;;;;;0.00;0.00;;;;;;;12.06;87.07;101093.34;5069979;28;20279;-75
2022/09/01 00:56:12;;;;;;;0.00;0.00;;;;;;;11.96;88.12;101097.09;5071721;28;20190;-75
2022/09/01 00:58:38;;;;;;;0.10;0.10;;;;;;;11.92;88.88;101101.56;5071834;28;20248;-75
2022/09/01 01:01:06;;;;;;;0.00;0.00;;;;;;;11.84;89.73;101099.50;5071821;28;20167;-76
2022/09/01 01:03:33;;;;;;;0.00;0.00;;;;;;;11.83;90.88;101089.69;5071404;28;20170;-74
2022/09/01 01:06:02;;;;;;;0.00;0.00;;;;;;;11.84;91.11;101092.09;5071662;28;20179;-75
2022/09/01 01:08:33;;;;;;;0.00;0.00;;;;;;;11.84;90.81;101094.84;5071521;28;20171;-75
2022/09/01 01:11:05;;;;;;;0.00;0.00;;;;;;;11.78;90.92;101087.81;5071642;28;20171;-76
2022/09/01 01:13:34;;;;;;;0.00;0.00;;;;;;;11.79;91.71;101094.94;5071241;28;20174;-75
2022/09/01 01:16:01;;;;;;;0.00;0.00;;;;;;;11.76;91.85;101095.53;5071308;28;20171;-75
2022/09/01 01:18:26;;;;;;;0.00;0.00;;;;;;;11.79;92.70;101091.41;5071415;28;20668;-75
2022/09/01 01:24:01;;;;;;;0.00;0.00;;;;;;;11.69;92.71;101086.09;5071471;28;20243;-74
2022/09/01 01:26:27;;;;;;;0.00;0.00;;;;;;;11.68;92.52;101093.50;5071091;28;20181;-75
2022/09/01 01:28:53;;;;;;;0.00;0.00;;;;;;;11.71;93.64;101090.13;5071252;28;20669;-75
2022/09/01 01:31:21;;;;;;;0.00;0.00;;;;;;;11.73;93.25;101092.59;5071207;28;20166;-74
2022/09/01 01:33:52;;;;;;;0.00;0.00;;;;;;;11.71;93.46;101094.81;5069477;28;20578;-75
2022/09/01 01:36:24;;;;;;;0.00;0.00;;;;;;;11.83;93.97;101100.63;5070668;28;20540;-75
2022/09/01 01:38:51;;;;;;;0.23;0.23;;;;;;;11.88;93.88;101095.88;5071068;28;20201;-76
2022/09/01 01:41:20;;;;;;;0.00;0.00;;;;;;;11.79;93.03;101100.44;5071034;28;20175;-75
2022/09/01 01:43:47;;;;;;;0.00;0.00;;;;;;;11.80;93.03;101091.09;5070814;28;20642;-75
2022/09/01 01:46:13;;;;;;;0.00;0.00;;;;;;;11.86;92.63;101086.31;5071055;28;20232;-75
2022/09/01 01:48:40;;;;;;;0.13;0.13;;;;;;;11.83;92.31;101097.88;5071066;28;20638;-76
2022/09/01 01:51:07;;;;;;;0.00;0.00;;;;;;;11.81;92.27;101094.66;5070844;28;20176;-76
2022/09/01 01:53:33;;;;;;;0.00;0.00;;;;;;;11.79;92.51;101096.88;5070789;28;20206;-75
2022/09/01 01:55:59;;;;;;;0.00;0.00;;;;;;;11.79;92.54;101099.63;5070636;28;20305;-74
2022/09/01 01:58:27;;;;;;;0.00;0.00;;;;;;;11.80;93.16;101104.78;5070822;28;20740;-75
2022/09/01 02:00:54;;;;;;;0.00;0.00;;;;;;;11.77;93.41;101096.34;5070785;28;20194;-76
2022/09/01 02:03:23;;;;;;;0.00;0.00;;;;;;;11.77;93.11;101097.16;5070764;28;20170;-76
2022/09/01 02:05:51;;;;;;;0.00;0.00;;;;;;;11.80;93.50;101101.25;5069357;28;20499;-76
2022/09/01 02:08:19;;;;;;;0.00;0.00;;;;;;;11.79;92.97;101105.09;5070700;28;20167;-75
2022/09/01 02:10:48;;;;;;;0.00;0.00;;;;;;;11.68;92.93;101104.44;5070721;28;20171;-75
2022/09/01 02:13:16;;;;;;;0.00;0.00;;;;;;;11.63;93.13;101102.63;5070496;28;20172;-75
2022/09/01 02:15:52;;;;;;;0.00;0.00;;;;;;;11.63;93.55;101115.50;5070701;28;20166;-76
2022/09/01 02:18:34;;;;;;;0.00;0.00;;;;;;;11.61;93.99;101104.03;5070563;28;20194;-76
2022/09/01 02:20:59;;;;;;;0.00;0.00;;;;;;;11.58;93.46;101105.47;5069686;28;20560;-76
2022/09/01 02:23:25;;;;;;;0.00;0.00;;;;;;;11.56;94.18;101110.41;5070514;28;20169;-75
2022/09/01 02:25:59;;;;;;;0.00;0.00;;;;;;;11.55;93.92;101102.50;5070428;28;20193;-73
2022/09/01 02:28:27;;;;;;;0.00;0.00;;;;;;;11.51;94.18;101102.28;5070631;28;20599;-75
2022/09/01 02:30:56;;;;;;;0.00;0.00;;;;;;;11.43;94.47;101100.25;5070485;28;20170;-76
2022/09/01 02:33:24;;;;;;;0.00;0.00;;;;;;;11.30;94.64;101101.84;5070387;28;20166;-76
2022/09/01 02:35:56;;;;;;;0.00;0.00;;;;;;;11.31;95.89;101097.19;5069268;28;20171;-75
2022/09/01 02:38:24;;;;;;;0.00;0.00;;;;;;;11.30;96.56;101099.13;5070608;28;20226;-75
2022/09/01 02:40:52;;;;;;;0.00;0.00;;;;;;;11.35;96.74;101094.66;5070520;28;20196;-75
2022/09/01 02:43:19;;;;;;;0.00;0.00;;;;;;;11.36;96.63;101096.28;5070270;28;20185;-75
2022/09/01 02:45:45;;;;;;;0.00;0.00;;;;;;;11.23;96.52;101092.38;5070972;28;20751;-76
2022/09/01 02:48:12;;;;;;;3.60;1.50;;;;;;;11.11;97.05;101095.59;5073057;28;20190;-76
2022/09/01 02:50:40;;;;;;;0.00;0.00;;;;;;;11.10;97.74;101093.16;5074453;28;20175;-75
2022/09/01 02:53:08;;;;;;;0.00;0.00;;;;;;;11.01;97.99;101087.56;5074090;28;20181;-75
2022/09/01 02:55:35;;;;;;;0.00;0.00;;;;;;;11.02;98.42;101090.00;5074075;28;20247;-76
2022/09/01 02:58:00;;;;;;;0.00;0.00;;;;;;;11.00;98.88;101085.94;5074222;28;20210;-75
2022/09/01 03:00:30;;;;;;;0.00;0.00;;;;;;;10.95;99.75;101084.09;5074355;28;20240;-77
2022/09/01 03:02:57;;;;;;;0.00;0.00;;;;;;;10.96;99.98;101082.16;5074260;28;20181;-73
2022/09/01 03:05:25;;;;;;;0.00;0.00;;;;;;;10.91;100.00;101090.47;5074039;28;20227;-75
2022/09/01 03:08:03;;;;;;;0.00;0.00;;;;;;;10.89;100.00;101087.22;5072830;28;20278;-75
2022/09/01 03:10:35;;;;;;;0.00;0.00;;;;;;;10.94;100.00;101078.94;5074005;28;20233;-74
2022/09/01 03:13:15;;;;;;;0.00;0.00;;;;;;;10.98;100.00;101086.22;5072691;28;20185;-73
2022/09/01 03:15:41;;;;;;;0.00;0.00;;;;;;;11.01;100.00;101090.31;5073694;28;20209;-75
2022/09/01 03:18:09;;;;;;;0.00;0.00;;;;;;;11.07;100.00;101091.03;5073760;28;20627;-76
2022/09/01 03:20:38;;;;;;;0.00;0.00;;;;;;;11.10;100.00;101088.50;5073993;28;20266;-76
2022/09/01 03:23:07;;;;;;;0.00;0.00;;;;;;;11.15;100.00;101096.63;5073753;28;20178;-75
2022/09/01 03:25:33;;;;;;;0.00;0.00;;;;;;;11.16;100.00;101091.97;5073465;28;20239;-75
2022/09/01 03:28:00;;;;;;;0.00;0.00;;;;;;;11.19;100.00;101094.91;5073718;28;20238;-76
2022/09/01 03:30:28;;;;;;;0.00;0.00;;;;;;;11.19;99.63;101099.59;5073714;28;20503;-76
2022/09/01 03:32:53;;;;;;;0.00;0.00;;;;;;;11.14;99.03;101094.19;5073542;28;20172;-73
2022/09/01 03:35:19;;;;;;;0.00;0.00;;;;;;;11.07;98.54;101094.56;5073224;28;20588;-76
2022/09/01 03:37:44;;;;;;;0.67;0.67;;;;;;;11.04;98.70;101092.44;5073380;28;20259;-76
2022/09/01 03:40:11;;;;;;;0.00;0.00;;;;;;;11.07;98.93;101089.09;5073405;28;20178;-76
2022/09/01 03:42:38;;;;;;;0.00;0.00;;;;;;;11.01;98.95;101093.03;5073526;28;20646;-75
2022/09/01 03:45:08;;;;;;;0.00;0.00;;;;;;;10.95;98.83;101086.00;5073262;28;20198;-75
2022/09/01 03:47:38;;;;;;;0.00;0.00;;;;;;;10.91;99.50;101087.72;5073388;28;20648;-76
2022/09/01 03:50:20;;;;;;;0.00;0.00;;;;;;;10.90;99.88;101084.19;5073346;28;20233;-76
2022/09/01 03:52:53;;;;;;;0.00;0.00;;;;;;;10.87;100.00;101083.97;5073295;28;20181;-77
2022/09/01 03:55:22;;;;;;;0.00;0.00;;;;;;;10.89;100.00;101084.50;5072734;28;20189;-75
2022/09/01 03:57:49;;;;;;;0.00;0.00;;;;;;;10.95;100.00;101088.75;5070803;28;20251;-76
2022/09/01 04:00:21;;;;;;;0.00;0.00;;;;;;;10.93;100.00;101091.78;5073184;28;20167;-74
2022/09/01 04:02:51;;;;;;;0.00;0.00;;;;;;;10.97;100.00;101086.53;5073216;28;20163;-76
2022/09/01 04:05:23;;;;;;;0.00;0.00;;;;;;;10.99;100.00;101089.78;5072823;28;20171;-77
2022/09/01 04:07:49;;;;;;;0.00;0.00;;;;;;;11.02;100.00;101094.66;5072991;28;20626;-76
2022/09/01 04:10:16;;;;;;;0.00;0.00;;;;;;;11.02;100.00;101092.75;5072930;28;20174;-76
2022/09/01 04:12:43;;;;;;;0.00;0.00;;;;;;;11.04;100.00;101089.72;5072821;28;20175;-75
2022/09/01 04:15:09;;;;;;;0.00;0.00;;;;;;;10.97;100.00;101101.00;5072542;28;20210;-75
2022/09/01 04:20:19;;;;;;;0.00;0.00;;;;;;;10.92;100.00;101092.91;5072727;28;20640;-76
2022/09/01 04:22:51;;;;;;;0.00;0.00;;;;;;;10.95;100.00;101099.69;5072730;28;20175;-76
2022/09/01 04:25:25;;;;;;;0.50;0.50;;;;;;;10.91;100.00;101107.69;5072220;28;20210;-76
2022/09/01 04:27:55;;;;;;;0.00;0.00;;;;;;;10.99;100.00;101104.28;5072431;28;20171;-75
2022/09/01 04:30:28;;;;;;;0.00;0.00;;;;;;;10.99;100.00;101097.97;5072626;28;20175;-77
2022/09/01 04:32:55;;;;;;;0.00;0.00;;;;;;;10.96;100.00;101095.84;5072379;28;20265;-75
2022/09/01 04:35:31;;;;;;;0.00;0.00;;;;;;;11.00;100.00;101094.16;5072279;28;20215;-75
2022/09/01 04:37:58;;;;;;;0.00;0.00;;;;;;;11.06;100.00;101092.94;5072426;28;20293;-76
2022/09/01 04:40:23;;;;;;;0.00;0.00;;;;;;;11.02;100.00;101094.66;5072475;28;20257;-75
2022/09/01 04:42:49;;;;;;;0.00;0.00;;;;;;;11.05;100.00;101096.00;5072495;28;20250;-76
2022/09/01 04:45:15;;;;;;;0.00;0.00;;;;;;;11.11;100.00;101094.78;5072117;28;20537;-76
2022/09/01 04:47:41;;;;;;;0.00;0.00;;;;;;;11.16;100.00;101102.91;5072399;28;20254;-74
2022/09/01 04:50:16;;;;;;;0.00;0.00;;;;;;;11.05;100.00;101106.94;5072252;28;20238;-76
2022/09/01 04:52:44;;;;;;;0.00;0.00;;;;;;;11.05;100.00;101098.72;5072217;28;20158;-76
2022/09/01 04:55:17;;;;;;;0.00;0.00;;;;;;;11.11;100.00;101106.53;5071230;28;20186;-75
2022/09/01 04:57:46;;;;;;;0.00;0.00;;;;;;;11.12;100.00;101107.34;5071989;28;20213;-77
2022/09/01 05:00:21;;;;;;;0.00;0.00;;;;;;;11.13;100.00;101107.03;5072109;28;20186;-76
2022/09/01 05:02:48;;;;;;;0.00;0.00;;;;;;;11.06;100.00;101114.81;5071888;28;20264;-75
2022/09/01 05:05:13;;;;;;;0.00;0.00;;;;;;;11.05;100.00;101107.75;5071672;28;20178;-74
2022/09/01 05:07:39;;;;;;;0.00;0.00;;;;;;;11.10;100.00;101104.09;5071874;28;20186;-75
2022/09/01 05:10:05;;;;;;;0.00;0.00;;;;;;;11.05;100.00;101099.53;5071686;28;20175;-76
2022/09/01 05:12:31;;;;;;;0.00;0.00;;;;;;;11.13;100.00;101109.78;5071826;28;20247;-75
2022/09/01 05:14:56;;;;;;;0.00;0.00;;;;;;;11.14;100.00;101107.84;5071532;28;20645;-77
2022/09/01 05:17:24;;;;;;;0.00;0.00;;;;;;;11.13;100.00;101103.50;5071654;28;20578;-76
2022/09/01 05:19:50;;;;;;;0.00;0.00;;;;;;;11.01;100.00;101103.97;5071655;28;20167;-75
2022/09/01 05:22:18;;;;;;;0.00;0.00;;;;;;;10.96;100.00;101093.91;5071674;28;20507;-75
2022/09/01 05:24:44;;;;;;;0.00;0.00;;;;;;;10.99;100.00;101104.28;5071161;28;20175;-76
2022/09/01 05:27:11;;;;;;;0.00;0.00;;;;;;;11.06;100.00;101101.16;5071604;28;20171;-74
2022/09/01 05:29:37;;;;;;;0.00;0.00;;;;;;;11.05;100.00;101098.72;5071401;28;20277;-77
2022/09/01 05:32:08;;;;;;;0.00;0.00;;;;;;;11.09;100.00;101102.47;5071452;28;20657;-76
2022/09/01 05:34:36;;;;;;;0.00;0.00;;;;;;;11.12;100.00;101102.69;5070003;28;20536;-77
2022/09/01 05:37:01;;;;;;;0.00;0.00;;;;;;;11.14;100.00;101105.97;5069984;28;20170;-75
2022/09/01 05:39:27;;;;;;;0.00;0.00;;;;;;;11.16;100.00;101111.94;5070001;28;20510;-75
2022/09/01 05:41:52;;;;;;;0.10;0.10;;;;;;;11.24;100.00;101105.75;5071141;28;20167;-75
2022/09/01 05:44:21;;;;;;;0.00;0.00;;;;;;;11.27;100.00;101109.81;5069758;28;20174;-77
2022/09/01 05:46:48;;;;;;;0.00;0.00;;;;;;;11.28;100.00;101120.50;5069949;28;20538;-75
2022/09/01 05:49:14;;;;;;;0.00;0.00;;;;;;;11.29;100.00;101111.16;5069851;28;20184;-75
2022/09/01 05:51:48;;;;;;;0.00;0.00;;;;;;;11.36;100.00;101118.97;5071078;28;20653;-73
2022/09/01 05:54:15;;;;;;;0.00;0.00;;;;;;;11.46;100.00;101124.28;5070524;28;20532;-73
2022/09/01 05:56:41;;;;;;;0.00;0.00;;;;;;;11.50;100.00;101114.34;5071344;28;20320;-72
2022/09/01 05:59:07;;;;;;;0.00;0.00;;;;;;;11.59;100.00;101118.03;5070860;28;20198;-75
2022/09/01 06:01:33;;;;;;;0.00;0.00;;;;;;;11.58;100.00;101121.88;5069553;28;20173;-75
2022/09/01 06:04:02;;;;;;;0.00;0.00;;;;;;;11.69;100.00;101122.47;5070756;28;20272;-74
2022/09/01 06:06:36;;;;;;;0.00;0.00;;;;;;;11.75;100.00;101120.47;5071065;28;20188;-73
2022/09/01 06:09:04;;;;;;;0.00;0.00;;;;;;;11.82;100.00;101127.19;5070230;28;20174;-75
2022/09/01 06:11:31;;;;;;;0.07;0.07;;;;;;;11.74;100.00;101130.63;5070838;28;20170;-75
2022/09/01 06:13:57;;;;;;;0.00;0.00;;;;;;;11.89;100.00;101129.56;5070560;28;20189;-74
2022/09/01 06:16:23;;;;;;;0.00;0.00;;;;;;;12.05;100.00;101136.34;5070819;28;20167;-74
2022/09/01 06:18:52;;;;;;;0.00;0.00;;;;;;;12.01;100.00;101135.34;5070445;28;20553;-75
2022/09/01 06:21:18;;;;;;;0.00;0.00;;;;;;;12.02;100.00;101130.69;5070185;28;20170;-75
2022/09/01 06:23:44;;;;;;;0.00;0.00;;;;;;;12.11;100.00;101124.16;5069721;28;20178;-79
2022/09/01 06:26:31;;;;;;;0.00;0.00;;;;;;;12.30;100.00;101129.56;5070350;28;20170;-77
2022/09/01 06:29:00;;;;;;;0.00;0.00;;;;;;;12.43;100.00;101128.69;5070130;28;20170;-78
2022/09/01 06:31:32;;;;;;;0.20;0.20;;;;;;;12.55;100.00;101133.66;5070328;28;20200;-78
2022/09/01 06:34:00;;;;;;;0.00;0.00;;;;;;;12.63;100.00;101140.34;5071721;28;20166;-77
2022/09/01 06:36:25;;;;;;;0.00;0.00;;;;;;;12.66;100.00;101129.56;5069346;28;20265;-78
2022/09/01 06:38:52;;;;;;;0.00;0.00;;;;;;;12.79;100.00;101133.41;5070324;28;20289;-77
2022/09/01 06:41:19;;;;;;;0.00;0.00;;;;;;;12.72;100.00;101135.75;5070550;28;20175;-77
2022/09/01 06:43:52;;;;;;;0.00;0.00;;;;;;;12.76;100.00;101145.81;5070373;28;20174;-77
2022/09/01 06:46:20;;;;;;;0.00;0.00;;;;;;;12.83;99.93;101139.88;5070560;28;20257;-76
2022/09/01 06:48:46;;;;;;;0.00;0.00;;;;;;;12.98;99.74;101139.53;5070723;28;20185;-78
2022/09/01 06:51:19;;;;;;;0.00;0.00;;;;;;;13.15;99.28;101151.75;5070232;28;20211;-78
2022/09/01 06:53:50;;;;;;;0.00;0.00;;;;;;;13.22;97.96;101147.50;5069918;28;20179;-79
2022/09/01 06:56:17;;;;;;;0.00;0.00;;;;;;;13.35;97.69;101152.13;5070256;28;20186;-79
2022/09/01 06:58:47;;;;;;;0.00;0.00;;;;;;;13.23;96.52;101160.09;5070083;28;20300;-78
2022/09/01 07:01:16;;;;;;;0.37;0.37;;;;;;;13.29;96.24;101158.03;5068960;28;20181;-77
2022/09/01 07:03:43;;;;;;;0.27;0.20;;;;;;;13.26;95.58;101153.97;5069858;28;20178;-78
2022/09/01 07:06:09;;;;;;;0.00;0.00;;;;;;;13.39;95.25;101158.59;5070348;28;20258;-77
2022/09/01 07:08:38;;;;;;;0.13;0.13;;;;;;;13.45;95.21;101164.75;5070366;28;20178;-78
2022/09/01 07:11:16;;;;;;;0.00;0.00;;;;;;;13.35;94.92;101159.53;5070157;28;20182;-78
2022/09/01 07:13:44;;;;;;;0.10;0.10;;;;;;;13.56;95.33;101166.13;5070049;28;20174;-78
2022/09/01 07:16:20;;;;;;;0.10;0.10;;;;;;;13.81;94.75;101169.34;5069880;28;20174;-78
2022/09/01 07:18:47;;;;;;;0.00;0.00;;;;;;;13.85;93.90;101165.66;5070054;28;20608;-77
2022/09/01 07:21:12;;;;;;;0.00;0.00;;;;;;;14.02;93.59;101164.09;5070041;28;20206;-78
2022/09/01 07:23:38;;;;;;;0.40;0.40;;;;;;;14.13;92.80;101170.94;5069807;28;20170;-78
2022/09/01 07:26:05;;;;;;;0.00;0.00;;;;;;;14.23;91.86;101171.47;5068488;28;20267;-78
2022/09/01 07:28:32;;;;;;;0.10;0.10;;;;;;;14.22;91.80;101169.84;5070023;28;20653;-78
2022/09/01 07:30:57;;;;;;;0.00;0.00;;;;;;;14.28;91.89;101174.06;5070031;28;20175;-73
2022/09/01 07:33:23;;;;;;;0.00;0.00;;;;;;;14.42;91.25;101170.41;5071262;28;20208;-74
2022/09/01 07:35:54;;;;;;;0.00;0.00;;;;;;;14.43;90.81;101170.06;5073458;28;20258;-82
2022/09/01 07:38:21;;;;;;;0.00;0.00;;;;;;;14.61;91.11;101170.97;5072077;28;20205;-77
2022/09/01 07:40:47;;;;;;;0.00;0.00;;;;;;;14.78;89.79;101176.50;5073437;28;20207;-78
2022/09/01 07:43:23;;;;;;;0.30;0.30;;;;;;;14.82;88.04;101176.66;5073136;28;20171;-78
2022/09/01 07:45:51;;;;;;;0.00;0.00;;;;;;;15.02;88.56;101186.22;5073475;28;20181;-77
2022/09/01 07:48:21;;;;;;;0.00;0.00;;;;;;;15.13;88.90;101180.06;5073240;28;20181;-81
2022/09/01 07:50:50;;;;;;;0.93;0.37;;;;;;;15.48;87.85;101183.63;5073332;28;20174;-78
2022/09/01 07:53:25;;;;;;;0.00;0.00;;;;;;;15.40;83.74;101184.44;5072926;28;20178;-78
2022/09/01 07:55:53;;;;;;;0.00;0.00;;;;;;;15.31;83.04;101185.56;5072956;28;20197;-84
2022/09/01 07:58:21;;;;;;;0.00;0.00;;;;;;;15.25;82.67;101184.13;5072962;28;20197;-80
2022/09/01 08:00:48;;;;;;;0.00;0.00;;;;;;;15.26;82.59;101186.56;5073088;28;20228;-82
2022/09/01 08:03:16;;;;;;;0.27;0.13;;;;;;;15.55;81.62;101187.81;5072760;28;20197;-84
2022/09/01 08:05:43;;;;;;;0.10;0.10;;;;;;;15.74;80.50;101193.78;5072156;28;20167;-78
2022/09/01 08:08:08;;;;;;;0.00;0.00;;;;;;;15.68;79.76;101187.66;5072556;28;20163;-77
2022/09/01 08:10:37;;;;;;;0.00;0.00;;;;;;;15.89;79.01;101179.50;5072387;28;20185;-80
2022/09/01 08:13:03;;;;;;;0.73;0.30;;;;;;;16.07;76.58;101185.78;5071193;28;20263;-75
2022/09/01 08:15:28;;;;;;;0.00;0.00;;;;;;;16.18;75.21;101191.72;5072203;28;20174;-77
2022/09/01 08:17:53;;;;;;;0.10;0.00;;;;;;;16.29;74.32;101190.22;5072417;28;20247;-73
2022/09/01 08:20:19;;;;;;;0.00;0.00;;;;;;;16.46;74.79;101197.59;5070882;28;20669;-74
2022/09/01 08:22:44;;;;;;;0.00;0.00;;;;;;;16.53;73.22;101197.88;5072253;28;20202;-74
2022/09/01 08:25:10;;;;;;;0.10;0.10;;;;;;;16.63;72.49;101195.53;5071924;28;20174;-74
2022/09/01 08:27:37;;;;;;;0.10;0.10;;;;;;;16.80;72.21;101188.34;5072552;28;20189;-74
2022/09/01 08:30:07;;;;;;;0.00;0.00;;;;;;;16.98;72.15;101198.09;5072878;28;20175;-73
2022/09/01 08:32:33;;;;;;;0.10;0.10;;;;;;;16.89;71.56;101198.16;5072486;28;20181;-74
2022/09/01 08:34:59;;;;;;;5.63;0.23;;;;;;;16.58;71.73;101201.25;5072147;28;20179;-72
2022/09/01 08:37:24;;;;;;;0.20;0.20;;;;;;;16.36;71.96;101201.53;5072188;28;20512;-74
2022/09/01 08:39:51;;;;;;;0.00;0.00;;;;;;;16.31;71.79;101201.72;5072335;28;20178;-73
2022/09/01 08:42:36;;;;;;;0.30;0.30;;;;;;;16.23;70.74;101202.56;5070859;28;20179;-73
2022/09/01 08:45:30;;;;;;;0.37;0.37;;;;;;;16.18;70.21;101203.53;5071513;28;20171;-73
2022/09/01 08:48:08;;;;;;;1.03;1.03;;;;;;;16.14;69.09;101199.03;5070792;28;20573;-73
2022/09/01 08:50:37;;;;;;;1.03;0.20;;;;;;;16.21;68.62;101205.66;5072060;28;20205;-74
2022/09/01 08:53:27;;;;;;;0.00;0.00;;;;;;;16.23;68.40;101203.38;5071617;28;20715;-77
2022/09/01 08:55:57;;;;;;;0.00;0.00;;;;;;;16.44;68.39;101208.94;5071634;28;20244;-77
2022/09/01 08:58:24;;;;;;;0.40;0.40;;;;;;;16.80;67.59;101204.91;5071475;28;20594;-77
2022/09/01 09:01:02;;;;;;;0.47;0.47;;;;;;;16.84;67.22;101214.13;5071510;28;20170;-78
2022/09/01 09:03:33;;;;;;;1.07;0.40;;;;;;;16.65;67.01;101211.78;5071201;28;20170;-77
2022/09/01 09:06:33;;;;;;;0.20;0.10;;;;;;;16.87;67.59;101205.97;5071408;28;20175;-77
2022/09/01 09:09:05;;;;;;;0.53;0.53;;;;;;;17.08;68.50;101203.25;5028036;28;20218;-78
2022/09/01 09:11:51;;;;;;;0.00;0.00;;;;;;;17.02;67.46;101207.34;5071247;28;20166;-77
2022/09/01 09:14:38;;;;;;;0.00;0.00;;;;;;;17.25;67.17;101205.84;5071014;28;20194;-77
2022/09/01 09:17:04;;;;;;;0.00;0.00;;;;;;;17.36;66.66;101208.19;5071361;28;20622;-77
2022/09/01 09:19:33;;;;;;;0.10;0.10;;;;;;;17.57;66.76;101200.69;5071120;28;20696;-77
2022/09/01 09:22:03;;;;;;;0.00;0.00;;;;;;;17.68;66.67;101201.09;5069135;28;20506;-78
2022/09/01 09:24:49;;;;;;;0.03;0.03;;;;;;;17.53;65.45;101200.56;5061986;28;20185;-79
2022/09/01 09:27:21;;;;;;;0.57;0.57;;;;;;;17.62;65.61;101196.91;5070957;28;20174;-79
2022/09/01 09:29:57;;;;;;;0.00;0.00;;;;;;;17.77;66.30;101183.25;5070774;28;20190;-78
2022/09/01 09:32:41;;;;;;;2.47;0.33;;;;;;;17.81;64.40;101189.75;5050910;28;20657;-78
2022/09/01 09:35:37;;;;;;;0.40;0.40;;;;;;;17.99;64.05;101186.78;5068875;28;20194;-75
2022/09/01 09:38:11;;;;;;;0.20;0.13;;;;;;;18.23;63.89;101175.75;5061977;28;20214;-77
2022/09/01 09:40:36;;;;;;;0.10;0.10;;;;;;;18.46;62.83;101180.81;5070949;28;20560;-77
2022/09/01 09:43:06;;;;;;;0.10;0.10;;;;;;;18.64;63.01;101180.25;5070616;28;20258;-76
2022/09/01 09:45:34;;;;;;;0.07;0.07;;;;;;;18.66;62.28;101174.34;5070450;28;20216;-77
2022/09/01 09:48:05;;;;;;;0.00;0.00;;;;;;;18.72;60.77;101179.31;5070996;28;20280;-77
2022/09/01 09:50:34;;;;;;;0.20;0.20;;;;;;;18.67;59.92;101176.81;5070497;28;20550;-77
2022/09/01 09:53:14;;;;;;;0.10;0.10;;;;;;;18.82;59.40;101180.81;5070469;28;20170;-76
2022/09/01 09:55:57;;;;;;;0.10;0.10;;;;;;;18.91;59.50;101178.69;5066894;28;20262;-77
2022/09/01 09:58:28;;;;;;;0.00;0.00;;;;;;;18.83;58.45;101168.56;5059073;28;20871;-76
2022/09/01 10:01:03;;;;;;;1.30;0.30;;;;;;;18.98;57.04;101169.81;5070202;28;20183;-75
2022/09/01 10:03:58;;;;;;;0.10;0.10;;;;;;;19.02;55.38;101168.75;5062817;28;20424;-76
2022/09/01 10:06:34;;;;;;;0.10;0.10;;;;;;;19.02;54.99;101160.44;5057862;28;20583;-75
2022/09/01 10:09:14;;;;;;;0.00;0.00;;;;;;;19.41;53.85;101154.41;5067252;28;20235;-75
2022/09/01 10:11:50;;;;;;;0.00;0.00;;;;;;;19.29;52.84;101160.81;5070348;28;20570;-76
2022/09/01 10:14:23;;;;;;;0.00;0.00;;;;;;;19.39;53.93;101153.97;5070066;28;20193;-77
2022/09/01 10:16:56;;;;;;;0.00;0.00;;;;;;;19.56;53.60;101143.38;5070324;28;20175;-77
2022/09/01 10:19:23;;;;;;;0.00;0.00;;;;;;;19.67;53.45;101151.16;5070078;28;20582;-76
2022/09/01 10:21:48;;;;;;;0.10;0.10;;;;;;;19.77;51.95;101147.88;5070145;28;20189;-77
2022/09/01 10:24:32;;;;;;;0.10;0.00;;;;;;;19.79;51.90;101146.34;5069912;28;20178;-76
2022/09/01 10:27:23;;;;;;;0.10;0.10;;;;;;;19.75;50.59;101150.19;5070063;28;20170;-75
2022/09/01 10:29:54;;;;;;;0.00;0.00;;;;;;;19.82;49.60;101134.56;5060475;28;20642;-76
2022/09/01 10:32:25;;;;;;;0.00;0.00;;;;;;;19.93;49.74;101143.13;5070208;28;20175;-76
2022/09/01 10:34:52;;;;;;;0.00;0.00;;;;;;;20.01;48.97;101139.41;5069886;28;20240;-76
2022/09/01 10:37:18;;;;;;;0.00;0.00;;;;;;;20.12;49.84;101132.16;5070029;28;20224;-75
2022/09/01 10:40:10;;;;;;;0.10;0.10;;;;;;;20.24;48.77;101125.66;5070492;28;20174;-76
2022/09/01 10:42:36;;;;;;;0.40;0.40;;;;;;;20.10;47.42;101133.66;5070060;28;20198;-76
2022/09/01 10:45:03;;;;;;;0.00;0.00;;;;;;;20.35;47.33;101137.03;5069478;28;20277;-76
2022/09/01 10:47:32;;;;;;;0.07;0.07;;;;;;;20.25;47.29;101134.78;5070072;28;20167;-76
2022/09/01 10:50:02;;;;;;;0.20;0.20;;;;;;;20.26;46.58;101123.38;5069797;28;20187;-76
2022/09/01 10:52:39;;;;;;;0.20;0.10;;;;;;;20.36;46.52;101116.44;5069684;28;20642;-76
2022/09/01 10:55:18;;;;;;;0.33;0.33;;;;;;;20.32;47.03;101121.09;5069592;28;20178;-74
2022/09/01 10:57:56;;;;;;;0.00;0.00;;;;;;;20.05;46.73;101120.06;5067462;28;20323;-73
2022/09/01 11:00:27;;;;;;;0.10;0.10;;;;;;;20.06;44.28;101119.69;5069852;28;20182;-74
2022/09/01 11:03:11;;;;;;;0.00;0.00;;;;;;;20.43;44.89;101117.44;5069897;28;20171;-74
2022/09/01 11:06:00;;;;;;;0.17;0.17;;;;;;;20.33;44.70;101117.16;5069611;28;20308;-76
2022/09/01 11:08:25;;;;;;;0.10;0.10;;;;;;;20.30;44.63;101117.88;5072678;28;20266;-76
2022/09/01 11:10:58;;;;;;;0.00;0.00;;;;;;;20.70;45.69;101118.44;5073261;28;21238;-75
2022/09/01 11:13:27;;;;;;;0.00;0.00;;;;;;;21.00;44.19;101110.34;5071624;28;20174;-77
2022/09/01 11:15:52;;;;;;;0.00;0.00;;;;;;;20.70;43.36;101115.66;5073139;28;20443;-76
2022/09/01 11:18:30;;;;;;;0.10;0.10;;;;;;;20.64;43.64;101108.78;5072795;28;20597;-74
2022/09/01 11:21:15;;;;;;;0.10;0.10;;;;;;;20.62;43.66;101115.88;5073517;28;20265;-76
2022/09/01 11:23:40;;;;;;;0.20;0.20;;;;;;;20.61;42.40;101112.28;5073179;28;20179;-76
2022/09/01 11:26:31;;;;;;;0.10;0.10;;;;;;;20.63;42.41;101100.81;5073123;28;20176;-74
2022/09/01 11:28:57;;;;;;;0.10;0.10;;;;;;;20.72;42.71;101102.22;5058747;28;20688;-77
2022/09/01 11:31:25;;;;;;;0.10;0.10;;;;;;;20.81;43.00;101107.53;5073008;28;20282;-77
2022/09/01 11:34:11;;;;;;;0.10;0.10;;;;;;;20.64;43.33;101106.00;5072753;28;20250;-76
2022/09/01 11:36:46;;;;;;;0.00;0.00;;;;;;;20.89;42.79;101094.63;5071929;28;20217;-75
2022/09/01 11:39:17;;;;;;;0.30;0.07;;;;;;;20.85;43.15;101097.34;5072574;28;20201;-75
2022/09/01 11:41:49;;;;;;;0.00;0.00;;;;;;;20.47;43.28;101086.97;5073104;28;20572;-75